Dupuy, Canada
Current Conditions -  °F | °C
As of 1:00 AM on Sunday 21 Dec 2014 (Local Time) from CYUY Reporting Station
Ice Pellets Ice Pellets  
Wind Chill: -8°   Ceiling: 200
Heat Index: -8°   Visibility: 5mi
Dew Point: -13°   Wind: 0mph
Humidity: 77%   Direction: NA
Pressure: 30.25"   Gusts: NA
Location:  48.83°N, 79.37°W
Report Text: CYUY 210600Z 00000KT 5SM IC OVC002 M22/M25 A3025 RMK SF8 SLP277
Loading
Personal Weather Stations






























Interactive Weather Map New forecast layout! Learn more

10-Day Weather Forecast

Advertisements
Track Severe Weather on mobile